Time;durP1;ratioP1;P1;durP2;ratioP2;P2;SDS_P1;SDS_P2;PMS_P1;PMS_P2;Temp;Humidity;BMP_temperature;BMP_pressure;BME280_temperature;BME280_humidity;BME280_pressure;Samples;Min_cycle;Max_cycle;Signal;HPM_P1;HPM_P2
2023/03/15 00:02:08;;;;;;;6.05;1.25;;;;;;;;;;4993810;28;20053;-72
2023/03/15 00:04:35;;;;;;;2.58;0.90;;;;;;;;;;4993736;28;20022;-72
2023/03/15 00:07:02;;;;;;;1.05;0.70;;;;;;;;;;4993288;28;20606;-71
2023/03/15 00:09:28;;;;;;;3.15;0.90;;;;;;;;;;4993312;28;20054;-73
2023/03/15 00:11:54;;;;;;;3.47;1.00;;;;;;;;;;4993560;28;20022;-73
2023/03/15 00:14:20;;;;;;;3.97;1.02;;;;;;;;;;4993246;28;20030;-74
2023/03/15 00:16:47;;;;;;;2.78;1.13;;;;;;;;;;4993522;28;20553;-74
2023/03/15 00:19:13;;;;;;;2.40;1.00;;;;;;;;;;4993324;28;20625;-71
2023/03/15 00:21:42;;;;;;;4.82;1.40;;;;;;;;;;4991861;28;20056;-72
2023/03/15 00:24:08;;;;;;;2.72;0.80;;;;;;;;;;4993227;28;20026;-71
2023/03/15 00:26:34;;;;;;;3.25;0.80;;;;;;;;;;4993095;28;20110;-72
2023/03/15 00:29:00;;;;;;;1.83;0.98;;;;;;;;;;4992931;28;20031;-73
2023/03/15 00:31:26;;;;;;;2.30;0.80;;;;;;;;;;5012749;28;20022;-72
2023/03/15 00:33:53;;;;;;;8.02;1.77;;;;;;;;;;5012574;28;20084;-72
2023/03/15 00:36:22;;;;;;;3.60;1.17;;;;;;;;;;5012479;28;20049;-72
2023/03/15 00:38:49;;;;;;;2.65;0.85;;;;;;;;;;5012345;28;20109;-71
2023/03/15 00:41:16;;;;;;;8.32;0.95;;;;;;;;;;5012324;28;20072;-72
2023/03/15 00:43:42;;;;;;;4.10;0.70;;;;;;;;;;5012356;28;20030;-72
2023/03/15 00:46:08;;;;;;;8.95;2.67;;;;;;;;;;5006467;28;20030;-71
2023/03/15 00:48:35;;;;;;;1.63;0.88;;;;;;;;;;4992597;28;20039;-71
2023/03/15 00:51:11;;;;;;;4.60;1.13;;;;;;;;;;4992766;28;20038;-73
2023/03/15 00:53:38;;;;;;;4.82;1.00;;;;;;;;;;4992538;28;20023;-73
2023/03/15 00:56:09;;;;;;;5.85;1.35;;;;;;;;;;4992499;28;20026;-72
2023/03/15 00:58:35;;;;;;;7.47;1.50;;;;;;;;;;4992814;28;20028;-72
2023/03/15 01:01:04;;;;;;;4.43;1.33;;;;;;;;;;4992431;28;20030;-73
2023/03/15 01:03:30;;;;;;;2.72;0.75;;;;;;;;;;4999367;28;20560;-72
2023/03/15 01:05:56;;;;;;;2.63;1.00;;;;;;;;;;5011872;28;20044;-71
2023/03/15 01:08:23;;;;;;;3.33;1.20;;;;;;;;;;5011924;28;20018;-72
2023/03/15 01:10:49;;;;;;;5.65;0.93;;;;;;;;;;5011990;28;20037;-72
2023/03/15 01:13:15;;;;;;;2.90;0.95;;;;;;;;;;5011792;28;20029;-72
2023/03/15 01:15:45;;;;;;;3.78;0.88;;;;;;;;;;5011823;28;20112;-73
2023/03/15 01:18:11;;;;;;;3.75;0.90;;;;;;;;;;5011760;28;20018;-71
2023/03/15 01:20:37;;;;;;;6.43;1.25;;;;;;;;;;5010894;28;20359;-72
2023/03/15 01:23:03;;;;;;;4.40;1.15;;;;;;;;;;5011511;28;20053;-73
2023/03/15 01:25:29;;;;;;;6.70;1.02;;;;;;;;;;5011698;28;20036;-71
2023/03/15 01:27:55;;;;;;;3.90;1.20;;;;;;;;;;5011754;28;20026;-72
2023/03/15 01:30:21;;;;;;;2.13;1.02;;;;;;;;;;5011534;28;20136;-71
2023/03/15 01:32:47;;;;;;;1.55;0.80;;;;;;;;;;5010455;28;20018;-71
2023/03/15 01:35:13;;;;;;;5.10;0.85;;;;;;;;;;5011581;28;20028;-70
2023/03/15 01:37:40;;;;;;;1.65;0.90;;;;;;;;;;5010533;28;20060;-70
2023/03/15 01:40:08;;;;;;;4.35;1.10;;;;;;;;;;5011557;28;20550;-72
2023/03/15 01:42:49;;;;;;;1.63;0.90;;;;;;;;;;5011557;28;20050;-71
2023/03/15 01:45:33;;;;;;;4.28;1.02;;;;;;;;;;5011321;28;20117;-72
2023/03/15 01:48:00;;;;;;;5.18;1.10;;;;;;;;;;5011368;28;20038;-71
2023/03/15 01:50:26;;;;;;;4.22;1.40;;;;;;;;;;5011372;28;20395;-72
2023/03/15 01:52:52;;;;;;;4.38;1.05;;;;;;;;;;5011536;28;20041;-71
2023/03/15 01:55:19;;;;;;;2.50;1.50;;;;;;;;;;5010408;28;20038;-73
2023/03/15 01:57:51;;;;;;;5.50;1.00;;;;;;;;;;5011352;28;20057;-72
2023/03/15 02:00:19;;;;;;;3.50;1.30;;;;;;;;;;5013519;28;20095;-73
2023/03/15 02:02:55;;;;;;;4.03;1.33;;;;;;;;;;5015395;28;20529;-74
2023/03/15 02:05:25;;;;;;;4.88;1.20;;;;;;;;;;5015671;28;20033;-71
2023/03/15 02:07:53;;;;;;;1.38;0.80;;;;;;;;;;5015258;28;20034;-72
2023/03/15 02:10:28;;;;;;;3.38;1.10;;;;;;;;;;5014321;28;20073;-73
2023/03/15 02:12:55;;;;;;;3.80;1.38;;;;;;;;;;5015152;28;20386;-72
2023/03/15 02:15:21;;;;;;;3.90;1.33;;;;;;;;;;5013942;28;20033;-73
2023/03/15 02:17:48;;;;;;;5.78;1.23;;;;;;;;;;5015188;28;20022;-74
2023/03/15 02:20:26;;;;;;;5.70;1.20;;;;;;;;;;5013696;28;20033;-72
2023/03/15 02:23:00;;;;;;;5.80;1.20;;;;;;;;;;5013501;28;20046;-73
2023/03/15 02:25:37;;;;;;;3.72;1.02;;;;;;;;;;5015118;28;20030;-71
2023/03/15 02:28:05;;;;;;;3.88;1.50;;;;;;;;;;5013938;28;20583;-72
2023/03/15 02:30:31;;;;;;;4.35;1.33;;;;;;;;;;5014486;28;20037;-72
2023/03/15 02:32:59;;;;;;;2.35;1.10;;;;;;;;;;5015055;28;20022;-72
2023/03/15 02:35:27;;;;;;;3.67;1.40;;;;;;;;;;5014880;28;20026;-72
2023/03/15 02:37:53;;;;;;;3.90;1.20;;;;;;;;;;5014708;28;20018;-73
2023/03/15 02:40:20;;;;;;;4.65;1.20;;;;;;;;;;5014999;28;20390;-72
2023/03/15 02:42:47;;;;;;;3.33;1.17;;;;;;;;;;5014096;28;20046;-73
2023/03/15 02:45:14;;;;;;;2.83;1.05;;;;;;;;;;5014292;28;20029;-73
2023/03/15 02:47:40;;;;;;;5.63;1.60;;;;;;;;;;5014691;28;20022;-72
2023/03/15 02:50:07;;;;;;;3.65;1.40;;;;;;;;;;5014480;28;20126;-73
2023/03/15 02:52:33;;;;;;;2.47;1.00;;;;;;;;;;5014560;28;20033;-73
2023/03/15 02:55:01;;;;;;;7.95;1.25;;;;;;;;;;5014311;28;20025;-73
2023/03/15 02:57:27;;;;;;;3.80;1.25;;;;;;;;;;5014480;28;20041;-71
2023/03/15 02:59:54;;;;;;;1.88;1.10;;;;;;;;;;5013024;28;20080;-72
2023/03/15 03:02:20;;;;;;;2.17;1.00;;;;;;;;;;5014356;28;20026;-72
2023/03/15 03:04:47;;;;;;;3.28;1.15;;;;;;;;;;5014185;28;20037;-72
2023/03/15 03:07:13;;;;;;;6.88;1.20;;;;;;;;;;5014064;28;20034;-73
2023/03/15 03:09:39;;;;;;;3.15;1.27;;;;;;;;;;5013689;28;20042;-72
2023/03/15 03:12:05;;;;;;;4.10;1.30;;;;;;;;;;5013259;28;20021;-73
2023/03/15 03:14:31;;;;;;;2.50;1.10;;;;;;;;;;5012943;28;20120;-73
2023/03/15 03:16:57;;;;;;;3.22;1.58;;;;;;;;;;5014002;28;20026;-71
2023/03/15 03:19:24;;;;;;;4.50;1.25;;;;;;;;;;5013943;28;20429;-72
2023/03/15 03:21:53;;;;;;;3.78;1.30;;;;;;;;;;5013683;28;20542;-72
2023/03/15 03:24:20;;;;;;;3.60;1.10;;;;;;;;;;5014114;28;20053;-74
2023/03/15 03:26:46;;;;;;;2.53;0.93;;;;;;;;;;5013775;28;20022;-71
2023/03/15 03:29:15;;;;;;;3.45;1.30;;;;;;;;;;5013564;28;20390;-70
2023/03/15 03:31:41;;;;;;;1.80;1.10;;;;;;;;;;4998020;28;20022;-71
2023/03/15 03:34:09;;;;;;;4.63;1.20;;;;;;;;;;4994109;28;20038;-72
2023/03/15 03:36:35;;;;;;;2.92;1.60;;;;;;;;;;4994013;28;20025;-71
2023/03/15 03:39:01;;;;;;;2.28;1.52;;;;;;;;;;4993830;28;20418;-70
2023/03/15 03:41:27;;;;;;;2.58;0.90;;;;;;;;;;4994185;28;20026;-72
2023/03/15 03:43:53;;;;;;;5.03;1.30;;;;;;;;;;4994013;28;20027;-72
2023/03/15 03:46:20;;;;;;;5.07;1.65;;;;;;;;;;4993982;28;20118;-72
2023/03/15 03:48:46;;;;;;;5.03;1.25;;;;;;;;;;5003681;28;20438;-72
2023/03/15 03:51:12;;;;;;;4.63;1.25;;;;;;;;;;5013489;28;20580;-73
2023/03/15 03:53:38;;;;;;;2.17;1.15;;;;;;;;;;5013604;28;20034;-73
2023/03/15 03:56:05;;;;;;;2.95;1.13;;;;;;;;;;5011861;28;20030;-74
2023/03/15 03:58:31;;;;;;;3.80;1.60;;;;;;;;;;5013235;28;20064;-72
2023/03/15 04:00:57;;;;;;;3.03;1.20;;;;;;;;;;5013146;28;20133;-73
2023/03/15 04:03:26;;;;;;;4.38;1.38;;;;;;;;;;5005390;28;20021;-71
2023/03/15 04:05:58;;;;;;;5.18;2.05;;;;;;;;;;4994005;28;20486;-72
2023/03/15 04:08:25;;;;;;;2.25;1.48;;;;;;;;;;4993469;28;20029;-72
2023/03/15 04:10:55;;;;;;;2.47;1.20;;;;;;;;;;4993480;28;20061;-73
2023/03/15 04:13:22;;;;;;;6.63;1.67;;;;;;;;;;4993449;28;20050;-73
2023/03/15 04:15:49;;;;;;;17.98;1.73;;;;;;;;;;4993384;28;20033;-72
2023/03/15 04:18:15;;;;;;;5.85;1.30;;;;;;;;;;4993232;28;20506;-72
2023/03/15 04:20:45;;;;;;;3.65;1.50;;;;;;;;;;5002321;28;20112;-73
2023/03/15 04:23:15;;;;;;;2.25;1.33;;;;;;;;;;5012260;28;20054;-73
2023/03/15 04:25:41;;;;;;;5.53;1.40;;;;;;;;;;5012909;28;20034;-72
2023/03/15 04:28:09;;;;;;;4.05;1.60;;;;;;;;;;5012640;28;20030;-71
2023/03/15 04:30:36;;;;;;;8.07;2.63;;;;;;;;;;5012456;28;20042;-72
2023/03/15 04:33:02;;;;;;;3.78;1.30;;;;;;;;;;5012571;28;20052;-73
2023/03/15 04:35:35;;;;;;;4.80;1.40;;;;;;;;;;5012723;28;20101;-73
2023/03/15 04:38:02;;;;;;;4.57;1.30;;;;;;;;;;5011627;28;20529;-72
2023/03/15 04:40:29;;;;;;;5.72;1.30;;;;;;;;;;5011153;28;20037;-72
2023/03/15 04:42:56;;;;;;;3.53;1.30;;;;;;;;;;5012368;28;20026;-73
2023/03/15 04:45:26;;;;;;;2.97;1.52;;;;;;;;;;5012455;28;20026;-72
2023/03/15 04:47:52;;;;;;;7.13;1.40;;;;;;;;;;5012179;28;20036;-73
2023/03/15 04:50:19;;;;;;;4.00;1.50;;;;;;;;;;5012318;28;20464;-72
2023/03/15 04:52:45;;;;;;;3.05;1.23;;;;;;;;;;5012389;28;20018;-72
2023/03/15 04:55:11;;;;;;;2.47;1.50;;;;;;;;;;5011122;28;20629;-73
2023/03/15 04:57:38;;;;;;;5.00;1.40;;;;;;;;;;5012121;28;20441;-73
2023/03/15 05:00:14;;;;;;;1.55;1.25;;;;;;;;;;5010813;28;20029;-73
2023/03/15 05:02:40;;;;;;;4.95;1.45;;;;;;;;;;5012105;28;20620;-72
2023/03/15 05:05:10;;;;;;;2.53;1.23;;;;;;;;;;5012023;28;20033;-73
2023/03/15 05:07:36;;;;;;;3.47;1.08;;;;;;;;;;5012166;28;20029;-72
2023/03/15 05:10:03;;;;;;;2.08;1.30;;;;;;;;;;5009579;28;20041;-74
2023/03/15 05:12:29;;;;;;;8.27;1.60;;;;;;;;;;5012010;28;20021;-73
2023/03/15 05:14:55;;;;;;;4.10;1.38;;;;;;;;;;5011683;28;20037;-72
2023/03/15 05:17:21;;;;;;;2.15;1.20;;;;;;;;;;5012033;28;20033;-73
2023/03/15 05:19:51;;;;;;;5.60;1.55;;;;;;;;;;5011694;28;20509;-74
2023/03/15 05:22:17;;;;;;;4.18;1.33;;;;;;;;;;5010437;28;20712;-73
2023/03/15 05:24:43;;;;;;;2.45;1.35;;;;;;;;;;5011648;28;20108;-73
2023/03/15 05:27:12;;;;;;;3.72;1.38;;;;;;;;;;5011627;28;20034;-73
2023/03/15 05:29:38;;;;;;;5.95;1.20;;;;;;;;;;5010659;28;20090;-73
2023/03/15 05:32:04;;;;;;;3.88;1.58;;;;;;;;;;5011625;28;20025;-73
2023/03/15 05:34:31;;;;;;;3.22;1.40;;;;;;;;;;5011016;28;20490;-74
2023/03/15 05:37:00;;;;;;;4.68;1.58;;;;;;;;;;5011457;28;20032;-72
2023/03/15 05:39:26;;;;;;;6.22;1.67;;;;;;;;;;5010283;28;20037;-72
2023/03/15 05:41:52;;;;;;;4.88;1.35;;;;;;;;;;5011619;28;20022;-72
2023/03/15 05:44:18;;;;;;;5.65;1.95;;;;;;;;;;5010563;28;20034;-72
2023/03/15 05:46:44;;;;;;;2.35;1.30;;;;;;;;;;5011521;28;20101;-73
2023/03/15 05:49:10;;;;;;;3.33;1.38;;;;;;;;;;5011258;28;20072;-73
2023/03/15 05:51:36;;;;;;;4.82;1.75;;;;;;;;;;5011442;28;20080;-73
2023/03/15 05:54:02;;;;;;;3.00;1.52;;;;;;;;;;5011401;28;20045;-73
2023/03/15 05:56:28;;;;;;;5.95;1.48;;;;;;;;;;5011351;28;20033;-73
2023/03/15 05:58:54;;;;;;;5.15;1.50;;;;;;;;;;5011264;28;20479;-73
2023/03/15 06:01:20;;;;;;;3.10;1.75;;;;;;;;;;5010394;28;20030;-73
2023/03/15 06:03:46;;;;;;;3.60;1.42;;;;;;;;;;5008245;28;20117;-73
2023/03/15 06:06:13;;;;;;;3.72;1.90;;;;;;;;;;5007957;28;20048;-74
2023/03/15 06:08:39;;;;;;;2.55;1.80;;;;;;;;;;5023733;28;20033;-73
2023/03/15 06:11:05;;;;;;;2.65;1.50;;;;;;;;;;5021175;28;20066;-72
2023/03/15 06:13:31;;;;;;;5.10;1.50;;;;;;;;;;5010906;28;20026;-74
2023/03/15 06:15:57;;;;;;;3.58;1.65;;;;;;;;;;5011489;28;20037;-74
2023/03/15 06:18:23;;;;;;;5.68;1.63;;;;;;;;;;5010872;28;20069;-74
2023/03/15 06:20:49;;;;;;;3.28;1.50;;;;;;;;;;5010745;28;20034;-73
2023/03/15 06:23:15;;;;;;;4.50;1.67;;;;;;;;;;4997695;28;20053;-74
2023/03/15 06:25:41;;;;;;;3.80;1.67;;;;;;;;;;5010640;28;20032;-73
2023/03/15 06:28:07;;;;;;;4.65;1.60;;;;;;;;;;5009072;28;20037;-73
2023/03/15 06:30:34;;;;;;;4.28;1.67;;;;;;;;;;5006868;28;20172;-73
2023/03/15 06:33:00;;;;;;;3.58;1.55;;;;;;;;;;5011193;28;20109;-72
2023/03/15 06:35:26;;;;;;;1.98;1.45;;;;;;;;;;5010748;28;20033;-72
2023/03/15 06:37:53;;;;;;;4.90;1.92;;;;;;;;;;5010848;28;20597;-72
2023/03/15 06:40:19;;;;;;;4.18;1.42;;;;;;;;;;5010605;28;20034;-72
2023/03/15 06:42:45;;;;;;;5.03;2.25;;;;;;;;;;5010788;28;20038;-73
2023/03/15 06:45:11;;;;;;;3.83;2.05;;;;;;;;;;5010740;28;20061;-74
2023/03/15 06:47:38;;;;;;;4.35;2.35;;;;;;;;;;5006622;28;20542;-73
2023/03/15 06:50:04;;;;;;;7.53;2.28;;;;;;;;;;5014457;28;20112;-73
2023/03/15 06:52:30;;;;;;;5.68;2.53;;;;;;;;;;5014557;28;20049;-73
2023/03/15 06:54:57;;;;;;;4.40;1.88;;;;;;;;;;5011278;28;20108;-73
2023/03/15 06:57:23;;;;;;;7.40;2.35;;;;;;;;;;5014289;28;20639;-72
2023/03/15 06:59:49;;;;;;;2.85;1.85;;;;;;;;;;5007982;28;20046;-70
2023/03/15 07:02:17;;;;;;;8.40;1.80;;;;;;;;;;5011461;28;20022;-71
2023/03/15 07:04:43;;;;;;;2.17;1.42;;;;;;;;;;5012887;28;20498;-71
2023/03/15 07:07:10;;;;;;;7.55;2.13;;;;;;;;;;5010624;28;20030;-72
2023/03/15 07:09:36;;;;;;;6.30;2.10;;;;;;;;;;5012734;28;20113;-73
2023/03/15 07:12:02;;;;;;;11.20;3.85;;;;;;;;;;5006512;28;20023;-73
2023/03/15 07:14:28;;;;;;;4.65;2.50;;;;;;;;;;4993505;28;20037;-71
2023/03/15 07:16:54;;;;;;;7.57;2.65;;;;;;;;;;5011965;28;20026;-72
2023/03/15 07:19:21;;;;;;;5.07;2.03;;;;;;;;;;5013238;28;20030;-71
2023/03/15 07:21:47;;;;;;;8.15;2.92;;;;;;;;;;5008293;28;20050;-72
2023/03/15 07:24:14;;;;;;;11.38;3.42;;;;;;;;;;4992634;28;20367;-72
2023/03/15 07:26:40;;;;;;;7.43;2.60;;;;;;;;;;4992512;28;20161;-72
2023/03/15 07:29:06;;;;;;;4.90;2.63;;;;;;;;;;4993017;28;20415;-72
2023/03/15 07:31:32;;;;;;;6.88;2.90;;;;;;;;;;4993912;28;20030;-72
2023/03/15 07:33:58;;;;;;;3.95;2.70;;;;;;;;;;5004976;28;20037;-71
2023/03/15 07:36:24;;;;;;;3.67;2.30;;;;;;;;;;5011412;28;20144;-72
2023/03/15 07:38:50;;;;;;;5.45;2.33;;;;;;;;;;5011775;28;20065;-70
2023/03/15 07:41:16;;;;;;;2.42;1.70;;;;;;;;;;5011966;28;20072;-72
2023/03/15 07:43:42;;;;;;;5.80;2.30;;;;;;;;;;5013614;28;20048;-72
2023/03/15 07:46:08;;;;;;;4.25;2.38;;;;;;;;;;5013397;28;20021;-72
2023/03/15 07:48:34;;;;;;;5.88;2.53;;;;;;;;;;5012641;28;20529;-72
2023/03/15 07:51:00;;;;;;;10.65;3.45;;;;;;;;;;5013346;28;20030;-72
2023/03/15 07:53:27;;;;;;;7.53;2.90;;;;;;;;;;5013477;28;20022;-72
2023/03/15 07:55:53;;;;;;;5.45;2.65;;;;;;;;;;5013286;28;20080;-72
2023/03/15 07:58:19;;;;;;;5.47;2.47;;;;;;;;;;5012646;28;20479;-71
2023/03/15 08:00:45;;;;;;;5.93;3.00;;;;;;;;;;5012081;28;20471;-71
2023/03/15 08:03:11;;;;;;;12.93;4.13;;;;;;;;;;5011984;28;20053;-71
2023/03/15 08:05:37;;;;;;;7.78;3.67;;;;;;;;;;5013902;28;20026;-72
2023/03/15 08:08:04;;;;;;;9.48;3.60;;;;;;;;;;5032790;28;20082;-72
2023/03/15 08:10:31;;;;;;;7.18;2.92;;;;;;;;;;5013163;28;20069;-72
2023/03/15 08:12:57;;;;;;;4.65;3.03;;;;;;;;;;5013184;28;20487;-72
2023/03/15 08:15:23;;;;;;;6.25;3.60;;;;;;;;;;5010457;28;20518;-72
2023/03/15 08:17:49;;;;;;;5.75;3.35;;;;;;;;;;5012556;28;20499;-71
2023/03/15 08:20:19;;;;;;;6.18;3.50;;;;;;;;;;5012852;28;20478;-73
2023/03/15 08:22:48;;;;;;;7.47;3.05;;;;;;;;;;5012710;28;20430;-72
2023/03/15 08:25:16;;;;;;;6.60;2.70;;;;;;;;;;5002422;28;20030;-73
2023/03/15 08:27:42;;;;;;;7.63;3.10;;;;;;;;;;5011626;28;20174;-74
2023/03/15 08:30:12;;;;;;;6.15;2.83;;;;;;;;;;5012384;28;20037;-73
2023/03/15 08:32:42;;;;;;;3.70;2.58;;;;;;;;;;5012548;28;20146;-71
2023/03/15 08:35:09;;;;;;;5.50;2.97;;;;;;;;;;5011603;28;20048;-73
2023/03/15 08:37:35;;;;;;;5.50;2.53;;;;;;;;;;5009662;28;20080;-73
2023/03/15 08:40:07;;;;;;;5.20;1.95;;;;;;;;;;5008532;28;20085;-75
2023/03/15 08:42:33;;;;;;;8.13;3.60;;;;;;;;;;5012101;28;20018;-72
2023/03/15 08:45:00;;;;;;;3.50;2.42;;;;;;;;;;5012334;28;20022;-72
2023/03/15 08:47:27;;;;;;;2.35;1.27;;;;;;;;;;5010162;28;20034;-72
2023/03/15 08:49:53;;;;;;;6.03;1.13;;;;;;;;;;5012103;28;20057;-74
2023/03/15 08:52:20;;;;;;;1.25;0.98;;;;;;;;;;5011933;28;20494;-74
2023/03/15 08:54:46;;;;;;;1.58;0.93;;;;;;;;;;5011309;28;20602;-74
2023/03/15 08:57:12;;;;;;;3.72;1.10;;;;;;;;;;4995700;28;20033;-74
2023/03/15 08:59:39;;;;;;;2.15;1.02;;;;;;;;;;5006725;28;20041;-71
2023/03/15 09:02:05;;;;;;;1.33;0.73;;;;;;;;;;4996540;28;20026;-71
2023/03/15 09:04:31;;;;;;;2.25;1.00;;;;;;;;;;5003436;28;20029;-71
2023/03/15 09:06:57;;;;;;;1.63;0.95;;;;;;;;;;5011849;28;20029;-72
2023/03/15 09:09:24;;;;;;;2.42;1.52;;;;;;;;;;5011864;28;20396;-73
2023/03/15 09:11:50;;;;;;;4.18;1.20;;;;;;;;;;5011962;28;20049;-71
2023/03/15 09:14:16;;;;;;;1.30;1.00;;;;;;;;;;5007123;28;20030;-72
2023/03/15 09:16:42;;;;;;;1.55;0.85;;;;;;;;;;5003760;28;20415;-72
2023/03/15 09:19:08;;;;;;;2.20;1.00;;;;;;;;;;5010949;28;20491;-72
2023/03/15 09:21:34;;;;;;;1.90;1.20;;;;;;;;;;5011616;28;20128;-72
2023/03/15 09:24:00;;;;;;;2.42;1.42;;;;;;;;;;5009098;28;20049;-72
2023/03/15 09:26:26;;;;;;;6.40;2.50;;;;;;;;;;5011244;28;20029;-72
2023/03/15 09:28:52;;;;;;;5.53;1.70;;;;;;;;;;5009778;28;20025;-72
2023/03/15 09:31:18;;;;;;;2.05;1.30;;;;;;;;;;5000041;28;20099;-72
2023/03/15 09:33:48;;;;;;;1.20;0.80;;;;;;;;;;4991953;28;20050;-72
2023/03/15 09:36:14;;;;;;;3.20;1.10;;;;;;;;;;4991837;28;20027;-72
2023/03/15 09:38:42;;;;;;;1.80;0.90;;;;;;;;;;5003430;28;20033;-73
2023/03/15 09:41:15;;;;;;;2.55;1.25;;;;;;;;;;5011397;28;20063;-73
2023/03/15 09:44:00;;;;;;;2.38;0.90;;;;;;;;;;5009930;28;20058;-72
2023/03/15 09:46:28;;;;;;;3.08;1.15;;;;;;;;;;5011642;28;20127;-71
2023/03/15 09:48:57;;;;;;;1.48;1.30;;;;;;;;;;5009205;28;20044;-72
2023/03/15 09:51:42;;;;;;;3.97;0.90;;;;;;;;;;5012147;28;20507;-74
2023/03/15 09:54:11;;;;;;;2.28;1.00;;;;;;;;;;5022003;28;20042;-73
2023/03/15 09:56:44;;;;;;;3.55;1.30;;;;;;;;;;5020645;28;20265;-74
2023/03/15 09:59:11;;;;;;;3.83;1.13;;;;;;;;;;5021579;28;20490;-73
2023/03/15 10:01:38;;;;;;;5.90;1.38;;;;;;;;;;5019025;28;20040;-73
2023/03/15 10:04:10;;;;;;;4.78;1.95;;;;;;;;;;5011029;28;20029;-73
2023/03/15 10:06:36;;;;;;;;;;;;;;;;;;5010306;28;20105;-73
2023/03/15 10:09:06;;;;;;;5.63;1.80;;;;;;;;;;5007259;28;20017;-73
2023/03/15 10:11:56;;;;;;;3.83;1.38;;;;;;;;;;5009165;28;20506;-73
2023/03/15 10:14:38;;;;;;;2.70;1.75;;;;;;;;;;5010594;28;20065;-72
2023/03/15 10:17:12;;;;;;;2.70;1.42;;;;;;;;;;5009688;28;20033;-73
2023/03/15 10:19:51;;;;;;;3.50;1.45;;;;;;;;;;4992153;28;20169;-73
2023/03/15 10:22:26;;;;;;;3.33;1.50;;;;;;;;;;5010256;28;20046;-74
2023/03/15 10:25:01;;;;;;;3.85;1.45;;;;;;;;;;5013821;28;20501;-74
2023/03/15 10:27:31;;;;;;;2.20;1.00;;;;;;;;;;5014948;28;20125;-74
2023/03/15 10:29:58;;;;;;;4.18;1.33;;;;;;;;;;5013519;28;20129;-74
2023/03/15 10:32:26;;;;;;;1.95;1.00;;;;;;;;;;5014824;28;20036;-73
2023/03/15 10:34:54;;;;;;;3.45;1.13;;;;;;;;;;5014724;28;20037;-73
2023/03/15 10:37:22;;;;;;;1.98;1.05;;;;;;;;;;5013723;28;20034;-73
2023/03/15 10:39:50;;;;;;;3.20;1.30;;;;;;;;;;5014606;28;20034;-72
2023/03/15 10:42:45;;;;;;;5.80;1.00;;;;;;;;;;5014657;28;20033;-73
2023/03/15 10:45:18;;;;;;;3.28;0.70;;;;;;;;;;5009844;28;20057;-74
2023/03/15 10:47:44;;;;;;;3.45;1.20;;;;;;;;;;5014722;28;20022;-74
2023/03/15 10:50:10;;;;;;;3.00;0.95;;;;;;;;;;5014611;28;20120;-74
2023/03/15 10:52:38;;;;;;;1.63;0.70;;;;;;;;;;5009566;28;20534;-74
2023/03/15 10:55:05;;;;;;;1.77;0.70;;;;;;;;;;4995099;28;20046;-72
2023/03/15 10:57:38;;;;;;;2.55;0.90;;;;;;;;;;4995208;28;20031;-74
2023/03/15 11:00:08;;;;;;;2.42;0.80;;;;;;;;;;4995622;28;20022;-72
2023/03/15 11:02:36;;;;;;;2.63;0.90;;;;;;;;;;4994984;28;20018;-70
2023/03/15 11:05:04;;;;;;;3.83;0.70;;;;;;;;;;4995499;28;20218;-72
2023/03/15 11:07:34;;;;;;;2.13;0.75;;;;;;;;;;4995361;28;20034;-74
2023/03/15 11:10:01;;;;;;;1.98;0.80;;;;;;;;;;4995003;28;20086;-75
2023/03/15 11:12:32;;;;;;;2.33;0.70;;;;;;;;;;4994595;28;20156;-74
2023/03/15 11:15:18;;;;;;;6.60;1.40;;;;;;;;;;4994785;28;20113;-74
2023/03/15 11:17:46;;;;;;;1.88;0.80;;;;;;;;;;4994654;28;20026;-74
2023/03/15 11:20:24;;;;;;;3.55;1.15;;;;;;;;;;4994573;28;20142;-74
2023/03/15 11:22:51;;;;;;;1.65;0.77;;;;;;;;;;4994256;28;20621;-74
2023/03/15 11:25:17;;;;;;;2.05;0.70;;;;;;;;;;4994345;28;20058;-74
2023/03/15 11:27:49;;;;;;;1.13;0.73;;;;;;;;;;4999200;28;20026;-74
2023/03/15 11:30:16;;;;;;;4.55;0.95;;;;;;;;;;5013779;28;20439;-74
2023/03/15 11:32:43;;;;;;;6.07;1.20;;;;;;;;;;5012812;28;20414;-74
2023/03/15 11:35:13;;;;;;;1.50;0.77;;;;;;;;;;5012505;28;20113;-73
2023/03/15 11:37:42;;;;;;;1.42;0.63;;;;;;;;;;5013686;28;20443;-74
2023/03/15 11:40:15;;;;;;;1.75;0.50;;;;;;;;;;5013554;28;20497;-73
2023/03/15 11:42:49;;;;;;;2.15;0.80;;;;;;;;;;5012316;28;20057;-74
2023/03/15 11:45:35;;;;;;;5.30;1.20;;;;;;;;;;5011807;28;20049;-73
2023/03/15 11:48:04;;;;;;;2.95;0.73;;;;;;;;;;5013431;28;20102;-72
2023/03/15 11:50:30;;;;;;;0.80;0.60;;;;;;;;;;5013277;28;20033;-72
2023/03/15 11:53:01;;;;;;;0.73;0.50;;;;;;;;;;5013741;28;20025;-74
2023/03/15 11:55:28;;;;;;;1.30;0.57;;;;;;;;;;5013454;28;20040;-73
2023/03/15 11:57:56;;;;;;;1.58;0.60;;;;;;;;;;5013416;28;20084;-72
2023/03/15 12:00:25;;;;;;;1.38;0.60;;;;;;;;;;5011801;28;20026;-73
2023/03/15 12:02:59;;;;;;;2.00;0.75;;;;;;;;;;5012465;28;20436;-72
2023/03/15 12:05:40;;;;;;;2.03;0.60;;;;;;;;;;5013206;28;20583;-72
2023/03/15 12:08:25;;;;;;;2.45;0.80;;;;;;;;;;5013127;28;20075;-73
2023/03/15 12:10:51;;;;;;;3.72;0.70;;;;;;;;;;5012623;28;20553;-73
2023/03/15 12:13:25;;;;;;;2.45;0.60;;;;;;;;;;5013188;28;20037;-74
2023/03/15 12:15:52;;;;;;;5.97;0.70;;;;;;;;;;5013054;28;20030;-73
2023/03/15 12:18:21;;;;;;;2.38;0.80;;;;;;;;;;5013468;28;20101;-72
2023/03/15 12:20:52;;;;;;;3.80;0.80;;;;;;;;;;5012517;28;20080;-73
2023/03/15 12:23:21;;;;;;;0.90;0.60;;;;;;;;;;5012673;28;20046;-72
2023/03/15 12:25:51;;;;;;;2.17;0.90;;;;;;;;;;5013038;28;20022;-73
2023/03/15 12:28:27;;;;;;;2.00;0.70;;;;;;;;;;5012953;28;20026;-72
2023/03/15 12:30:57;;;;;;;3.60;0.70;;;;;;;;;;5012677;28;20057;-74
2023/03/15 12:33:25;;;;;;;3.35;0.70;;;;;;;;;;5012716;28;20046;-74
2023/03/15 12:35:58;;;;;;;2.55;0.70;;;;;;;;;;5012455;28;20041;-72
2023/03/15 12:38:24;;;;;;;1.73;0.60;;;;;;;;;;5011510;28;20026;-72
2023/03/15 12:40:54;;;;;;;1.05;0.60;;;;;;;;;;5011074;28;20521;-74
2023/03/15 12:43:42;;;;;;;3.42;0.70;;;;;;;;;;5011903;28;20029;-73
2023/03/15 12:46:28;;;;;;;2.03;0.73;;;;;;;;;;5012280;28;20026;-73
2023/03/15 12:49:13;;;;;;;2.60;0.70;;;;;;;;;;5012233;28;20097;-73
2023/03/15 12:51:53;;;;;;;1.52;0.60;;;;;;;;;;5011564;28;20101;-75
2023/03/15 12:54:20;;;;;;;2.40;0.70;;;;;;;;;;4992593;28;20030;-74
2023/03/15 12:56:53;;;;;;;2.35;0.88;;;;;;;;;;4992477;28;20026;-73
2023/03/15 12:59:19;;;;;;;3.25;0.85;;;;;;;;;;4992662;28;20049;-72
2023/03/15 13:01:45;;;;;;;5.65;1.00;;;;;;;;;;4992023;28;20476;-72
2023/03/15 13:04:12;;;;;;;5.10;0.90;;;;;;;;;;4992433;28;20081;-72
2023/03/15 13:07:05;;;;;;;5.28;1.00;;;;;;;;;;4992821;28;20029;-73
2023/03/15 13:09:41;;;;;;;4.35;1.52;;;;;;;;;;4990260;28;20582;-73
2023/03/15 13:12:18;;;;;;;4.68;0.90;;;;;;;;;;5011698;28;20482;-72
2023/03/15 13:15:17;;;;;;;1.17;0.70;;;;;;;;;;5011850;28;20117;-72
2023/03/15 13:17:49;;;;;;;3.67;1.20;;;;;;;;;;4999715;28;20132;-72
2023/03/15 13:20:48;;;;;;;5.90;0.90;;;;;;;;;;5011769;28;20046;-72
2023/03/15 13:23:23;;;;;;;3.63;0.70;;;;;;;;;;4999303;28;20042;-72
2023/03/15 13:26:08;;;;;;;1.90;0.70;;;;;;;;;;5011694;28;20080;-72
2023/03/15 13:28:53;;;;;;;3.75;0.70;;;;;;;;;;5010814;28;20044;-73
2023/03/15 13:31:19;;;;;;;4.57;0.88;;;;;;;;;;5010336;28;20045;-73
2023/03/15 13:33:56;;;;;;;2.88;1.00;;;;;;;;;;5011620;28;20029;-72
2023/03/15 13:36:26;;;;;;;2.15;0.70;;;;;;;;;;5011470;28;20048;-71
2023/03/15 13:38:54;;;;;;;4.68;0.85;;;;;;;;;;5011338;28;20069;-72
2023/03/15 13:41:27;;;;;;;1.75;0.70;;;;;;;;;;5011653;28;20026;-73
2023/03/15 13:43:54;;;;;;;5.05;0.80;;;;;;;;;;4996055;28;20026;-73
2023/03/15 13:46:22;;;;;;;2.67;0.70;;;;;;;;;;4991716;28;20035;-74
2023/03/15 13:48:48;;;;;;;2.55;1.17;;;;;;;;;;4991795;28;20098;-73
2023/03/15 13:51:18;;;;;;;5.25;0.80;;;;;;;;;;4991773;28;20105;-74
2023/03/15 13:53:45;;;;;;;3.72;0.60;;;;;;;;;;4991969;28;20027;-72
2023/03/15 13:56:15;;;;;;;2.30;0.60;;;;;;;;;;4991173;28;20117;-72
2023/03/15 13:58:42;;;;;;;3.35;0.60;;;;;;;;;;4996719;28;20431;-72
2023/03/15 14:01:10;;;;;;;4.00;1.27;;;;;;;;;;5011426;28;20588;-72
2023/03/15 14:03:37;;;;;;;6.38;1.30;;;;;;;;;;5011628;28;20057;-72
2023/03/15 14:06:04;;;;;;;3.22;0.80;;;;;;;;;;5011345;28;20055;-72
2023/03/15 14:08:35;;;;;;;2.08;0.60;;;;;;;;;;5011596;28;20105;-73
2023/03/15 14:11:05;;;;;;;5.88;0.80;;;;;;;;;;5011119;28;20096;-71
2023/03/15 14:13:34;;;;;;;3.92;1.05;;;;;;;;;;5010403;28;20387;-72
2023/03/15 14:16:13;;;;;;;1.13;0.60;;;;;;;;;;5009893;28;20041;-73
2023/03/15 14:18:40;;;;;;;3.85;0.70;;;;;;;;;;5011114;28;20092;-73
2023/03/15 14:21:17;;;;;;;2.45;0.70;;;;;;;;;;5011185;28;20026;-71
2023/03/15 14:23:45;;;;;;;6.72;0.93;;;;;;;;;;5011222;28;20458;-72
2023/03/15 14:26:13;;;;;;;3.20;0.68;;;;;;;;;;5010230;28;20026;-72
2023/03/15 14:28:40;;;;;;;8.05;1.00;;;;;;;;;;5011070;28;20040;-72
2023/03/15 14:31:06;;;;;;;2.15;0.75;;;;;;;;;;5011321;28;20038;-72
2023/03/15 14:33:34;;;;;;;9.18;1.05;;;;;;;;;;5011101;28;20499;-72
2023/03/15 14:36:02;;;;;;;4.60;1.02;;;;;;;;;;5011090;28;20034;-71
2023/03/15 14:38:32;;;;;;;2.28;0.73;;;;;;;;;;5010964;28;20022;-72
2023/03/15 14:41:10;;;;;;;1.85;0.63;;;;;;;;;;5010772;28;20110;-73
2023/03/15 14:43:36;;;;;;;4.25;0.82;;;;;;;;;;4994632;28;20015;-73
2023/03/15 14:46:02;;;;;;;6.85;0.77;;;;;;;;;;4991597;28;20030;-73
2023/03/15 14:48:29;;;;;;;4.15;0.70;;;;;;;;;;4990208;28;20030;-74
2023/03/15 14:50:55;;;;;;;4.25;0.90;;;;;;;;;;4989583;28;20570;-73
2023/03/15 14:53:23;;;;;;;3.55;0.90;;;;;;;;;;4991131;28;20058;-72